sensor_id;sensor_type;location;lat;lon;timestamp;P1;durP1;ratioP1;P2;durP2;ratioP2
20653;SDS011;21083;50.898;4.902;2023-08-31T00:01:09;3.55;;;0.80;;
20653;SDS011;21083;50.898;4.902;2023-08-31T00:03:36;4.57;;;1.20;;
20653;SDS011;21083;50.898;4.902;2023-08-31T00:06:03;3.30;;;1.10;;
20653;SDS011;21083;50.898;4.902;2023-08-31T00:08:32;3.40;;;1.10;;
20653;SDS011;21083;50.898;4.902;2023-08-31T00:11:00;2.75;;;1.05;;
20653;SDS011;21083;50.898;4.902;2023-08-31T00:13:27;4.95;;;1.30;;
20653;SDS011;21083;50.898;4.902;2023-08-31T00:15:56;2.97;;;0.98;;
20653;SDS011;21083;50.898;4.902;2023-08-31T00:18:25;6.03;;;1.83;;
20653;SDS011;21083;50.898;4.902;2023-08-31T00:20:52;4.70;;;1.10;;
20653;SDS011;21083;50.898;4.902;2023-08-31T00:23:19;4.90;;;1.40;;
20653;SDS011;21083;50.898;4.902;2023-08-31T00:25:46;4.13;;;1.50;;
20653;SDS011;21083;50.898;4.902;2023-08-31T00:28:14;3.15;;;1.30;;
20653;SDS011;21083;50.898;4.902;2023-08-31T00:30:43;5.65;;;1.60;;
20653;SDS011;21083;50.898;4.902;2023-08-31T00:33:12;2.38;;;1.17;;
20653;SDS011;21083;50.898;4.902;2023-08-31T00:35:39;3.47;;;1.40;;
20653;SDS011;21083;50.898;4.902;2023-08-31T00:38:10;7.07;;;1.83;;
20653;SDS011;21083;50.898;4.902;2023-08-31T00:40:38;6.63;;;1.80;;
20653;SDS011;21083;50.898;4.902;2023-08-31T00:43:10;5.93;;;1.83;;
20653;SDS011;21083;50.898;4.902;2023-08-31T00:45:38;6.38;;;1.50;;
20653;SDS011;21083;50.898;4.902;2023-08-31T00:48:05;7.68;;;1.92;;
20653;SDS011;21083;50.898;4.902;2023-08-31T00:50:35;4.78;;;1.60;;
20653;SDS011;21083;50.898;4.902;2023-08-31T00:53:02;3.22;;;1.35;;
20653;SDS011;21083;50.898;4.902;2023-08-31T00:55:29;7.15;;;2.03;;
20653;SDS011;21083;50.898;4.902;2023-08-31T00:57:58;7.80;;;2.67;;
20653;SDS011;21083;50.898;4.902;2023-08-31T01:00:26;8.85;;;2.10;;
20653;SDS011;21083;50.898;4.902;2023-08-31T01:03:01;8.23;;;1.70;;
20653;SDS011;21083;50.898;4.902;2023-08-31T01:05:33;6.07;;;1.75;;
20653;SDS011;21083;50.898;4.902;2023-08-31T01:08:10;4.43;;;2.22;;
20653;SDS011;21083;50.898;4.902;2023-08-31T01:10:46;3.42;;;1.73;;
20653;SDS011;21083;50.898;4.902;2023-08-31T01:13:23;7.32;;;1.90;;
20653;SDS011;21083;50.898;4.902;2023-08-31T01:15:52;7.30;;;2.05;;
20653;SDS011;21083;50.898;4.902;2023-08-31T01:18:23;5.65;;;1.80;;
20653;SDS011;21083;50.898;4.902;2023-08-31T01:20:55;4.78;;;1.92;;
20653;SDS011;21083;50.898;4.902;2023-08-31T01:23:29;5.32;;;1.90;;
20653;SDS011;21083;50.898;4.902;2023-08-31T01:26:01;10.52;;;2.30;;
20653;SDS011;21083;50.898;4.902;2023-08-31T01:28:28;6.60;;;2.25;;
20653;SDS011;21083;50.898;4.902;2023-08-31T01:30:56;6.47;;;2.10;;
20653;SDS011;21083;50.898;4.902;2023-08-31T01:33:23;8.93;;;2.55;;
20653;SDS011;21083;50.898;4.902;2023-08-31T01:35:51;5.38;;;2.42;;
20653;SDS011;21083;50.898;4.902;2023-08-31T01:38:24;6.60;;;2.35;;
20653;SDS011;21083;50.898;4.902;2023-08-31T01:40:54;5.35;;;1.98;;
20653;SDS011;21083;50.898;4.902;2023-08-31T01:43:27;5.38;;;2.03;;
20653;SDS011;21083;50.898;4.902;2023-08-31T01:45:57;6.05;;;2.47;;
20653;SDS011;21083;50.898;4.902;2023-08-31T01:48:24;6.78;;;2.45;;
20653;SDS011;21083;50.898;4.902;2023-08-31T01:50:51;5.47;;;2.70;;
20653;SDS011;21083;50.898;4.902;2023-08-31T01:53:18;8.85;;;2.53;;
20653;SDS011;21083;50.898;4.902;2023-08-31T01:55:45;7.38;;;2.80;;
20653;SDS011;21083;50.898;4.902;2023-08-31T01:58:12;6.65;;;2.33;;
20653;SDS011;21083;50.898;4.902;2023-08-31T02:00:40;8.13;;;2.92;;
20653;SDS011;21083;50.898;4.902;2023-08-31T02:03:07;11.57;;;2.90;;
20653;SDS011;21083;50.898;4.902;2023-08-31T02:05:35;5.80;;;2.80;;
20653;SDS011;21083;50.898;4.902;2023-08-31T02:08:02;9.85;;;2.90;;
20653;SDS011;21083;50.898;4.902;2023-08-31T02:10:29;5.97;;;2.50;;
20653;SDS011;21083;50.898;4.902;2023-08-31T02:12:56;8.82;;;2.95;;
20653;SDS011;21083;50.898;4.902;2023-08-31T02:15:23;8.20;;;2.92;;
20653;SDS011;21083;50.898;4.902;2023-08-31T02:17:52;6.85;;;2.58;;
20653;SDS011;21083;50.898;4.902;2023-08-31T02:20:20;11.05;;;3.13;;
20653;SDS011;21083;50.898;4.902;2023-08-31T02:22:47;8.13;;;2.78;;
20653;SDS011;21083;50.898;4.902;2023-08-31T02:25:14;6.45;;;2.28;;
20653;SDS011;21083;50.898;4.902;2023-08-31T02:27:42;10.75;;;2.80;;
20653;SDS011;21083;50.898;4.902;2023-08-31T02:30:09;12.57;;;2.67;;
20653;SDS011;21083;50.898;4.902;2023-08-31T02:32:36;7.50;;;2.72;;
20653;SDS011;21083;50.898;4.902;2023-08-31T02:35:05;8.40;;;3.38;;
20653;SDS011;21083;50.898;4.902;2023-08-31T02:37:33;8.85;;;2.95;;
20653;SDS011;21083;50.898;4.902;2023-08-31T02:40:00;6.78;;;2.85;;
20653;SDS011;21083;50.898;4.902;2023-08-31T02:42:28;7.65;;;3.33;;
20653;SDS011;21083;50.898;4.902;2023-08-31T02:44:55;9.90;;;3.47;;
20653;SDS011;21083;50.898;4.902;2023-08-31T02:47:22;8.23;;;3.15;;
20653;SDS011;21083;50.898;4.902;2023-08-31T02:49:49;10.20;;;3.13;;
20653;SDS011;21083;50.898;4.902;2023-08-31T02:52:17;14.00;;;3.53;;
20653;SDS011;21083;50.898;4.902;2023-08-31T02:54:44;19.50;;;3.90;;
20653;SDS011;21083;50.898;4.902;2023-08-31T02:57:11;8.77;;;3.08;;
20653;SDS011;21083;50.898;4.902;2023-08-31T02:59:40;6.70;;;2.83;;
20653;SDS011;21083;50.898;4.902;2023-08-31T03:02:07;13.40;;;3.55;;
20653;SDS011;21083;50.898;4.902;2023-08-31T03:04:35;12.15;;;3.78;;
20653;SDS011;21083;50.898;4.902;2023-08-31T03:07:03;10.75;;;3.20;;
20653;SDS011;21083;50.898;4.902;2023-08-31T03:09:32;11.00;;;3.30;;
20653;SDS011;21083;50.898;4.902;2023-08-31T03:11:59;10.75;;;4.10;;
20653;SDS011;21083;50.898;4.902;2023-08-31T03:14:26;11.35;;;4.22;;
20653;SDS011;21083;50.898;4.902;2023-08-31T03:16:53;11.82;;;3.60;;
20653;SDS011;21083;50.898;4.902;2023-08-31T03:19:20;10.10;;;3.67;;
20653;SDS011;21083;50.898;4.902;2023-08-31T03:21:47;9.35;;;2.95;;
20653;SDS011;21083;50.898;4.902;2023-08-31T03:24:14;11.25;;;3.67;;
20653;SDS011;21083;50.898;4.902;2023-08-31T03:26:42;7.90;;;3.33;;
20653;SDS011;21083;50.898;4.902;2023-08-31T03:29:09;10.82;;;3.40;;
20653;SDS011;21083;50.898;4.902;2023-08-31T03:31:36;7.65;;;3.30;;
20653;SDS011;21083;50.898;4.902;2023-08-31T03:34:03;9.07;;;3.28;;
20653;SDS011;21083;50.898;4.902;2023-08-31T03:36:30;12.85;;;3.38;;
20653;SDS011;21083;50.898;4.902;2023-08-31T03:38:56;9.20;;;3.13;;
20653;SDS011;21083;50.898;4.902;2023-08-31T03:41:24;11.10;;;3.65;;
20653;SDS011;21083;50.898;4.902;2023-08-31T03:43:52;7.85;;;3.05;;
20653;SDS011;21083;50.898;4.902;2023-08-31T03:46:19;8.95;;;3.00;;
20653;SDS011;21083;50.898;4.902;2023-08-31T03:48:46;9.65;;;3.92;;
20653;SDS011;21083;50.898;4.902;2023-08-31T03:51:13;9.57;;;3.15;;
20653;SDS011;21083;50.898;4.902;2023-08-31T03:53:40;9.32;;;3.17;;
20653;SDS011;21083;50.898;4.902;2023-08-31T03:56:09;8.00;;;2.92;;
20653;SDS011;21083;50.898;4.902;2023-08-31T03:58:36;9.90;;;3.10;;
20653;SDS011;21083;50.898;4.902;2023-08-31T04:01:04;7.88;;;2.67;;
20653;SDS011;21083;50.898;4.902;2023-08-31T04:03:31;8.40;;;2.47;;
20653;SDS011;21083;50.898;4.902;2023-08-31T04:05:58;8.45;;;3.10;;
20653;SDS011;21083;50.898;4.902;2023-08-31T04:08:25;6.60;;;2.80;;
20653;SDS011;21083;50.898;4.902;2023-08-31T04:10:52;11.63;;;2.75;;
20653;SDS011;21083;50.898;4.902;2023-08-31T04:13:19;8.75;;;3.13;;
20653;SDS011;21083;50.898;4.902;2023-08-31T04:15:46;9.85;;;3.15;;
20653;SDS011;21083;50.898;4.902;2023-08-31T04:18:14;10.23;;;2.90;;
20653;SDS011;21083;50.898;4.902;2023-08-31T04:20:47;9.60;;;2.72;;
20653;SDS011;21083;50.898;4.902;2023-08-31T04:23:16;7.90;;;2.63;;
20653;SDS011;21083;50.898;4.902;2023-08-31T04:25:42;7.53;;;2.58;;
20653;SDS011;21083;50.898;4.902;2023-08-31T04:28:10;10.00;;;3.22;;
20653;SDS011;21083;50.898;4.902;2023-08-31T04:30:37;9.02;;;3.35;;
20653;SDS011;21083;50.898;4.902;2023-08-31T04:33:05;11.35;;;3.25;;
20653;SDS011;21083;50.898;4.902;2023-08-31T04:35:34;7.95;;;2.60;;
20653;SDS011;21083;50.898;4.902;2023-08-31T04:38:01;9.23;;;3.08;;
20653;SDS011;21083;50.898;4.902;2023-08-31T04:40:28;9.98;;;2.70;;
20653;SDS011;21083;50.898;4.902;2023-08-31T04:42:55;9.65;;;2.70;;
20653;SDS011;21083;50.898;4.902;2023-08-31T04:45:22;9.27;;;2.70;;
20653;SDS011;21083;50.898;4.902;2023-08-31T04:47:49;8.48;;;2.85;;
20653;SDS011;21083;50.898;4.902;2023-08-31T04:50:17;7.43;;;2.97;;
20653;SDS011;21083;50.898;4.902;2023-08-31T04:52:45;7.53;;;3.17;;
20653;SDS011;21083;50.898;4.902;2023-08-31T04:55:12;5.38;;;1.98;;
20653;SDS011;21083;50.898;4.902;2023-08-31T04:57:39;7.13;;;2.50;;
20653;SDS011;21083;50.898;4.902;2023-08-31T05:00:07;10.30;;;2.65;;
20653;SDS011;21083;50.898;4.902;2023-08-31T05:02:35;7.15;;;2.53;;
20653;SDS011;21083;50.898;4.902;2023-08-31T05:05:02;10.90;;;2.60;;
20653;SDS011;21083;50.898;4.902;2023-08-31T05:07:30;6.47;;;2.53;;
20653;SDS011;21083;50.898;4.902;2023-08-31T05:09:59;7.63;;;2.75;;
20653;SDS011;21083;50.898;4.902;2023-08-31T05:12:26;9.88;;;2.33;;
20653;SDS011;21083;50.898;4.902;2023-08-31T05:14:53;7.65;;;3.22;;
20653;SDS011;21083;50.898;4.902;2023-08-31T05:17:21;8.60;;;2.20;;
20653;SDS011;21083;50.898;4.902;2023-08-31T05:19:48;9.60;;;2.63;;
20653;SDS011;21083;50.898;4.902;2023-08-31T05:22:15;6.50;;;1.90;;
20653;SDS011;21083;50.898;4.902;2023-08-31T05:24:42;8.65;;;2.65;;
20653;SDS011;21083;50.898;4.902;2023-08-31T05:27:11;10.20;;;2.80;;
20653;SDS011;21083;50.898;4.902;2023-08-31T05:29:38;7.47;;;2.47;;
20653;SDS011;21083;50.898;4.902;2023-08-31T05:32:05;6.65;;;2.45;;
20653;SDS011;21083;50.898;4.902;2023-08-31T05:34:32;8.18;;;3.13;;
20653;SDS011;21083;50.898;4.902;2023-08-31T05:37:03;9.35;;;3.20;;
20653;SDS011;21083;50.898;4.902;2023-08-31T05:39:31;8.23;;;2.60;;
20653;SDS011;21083;50.898;4.902;2023-08-31T05:41:58;9.95;;;2.97;;
20653;SDS011;21083;50.898;4.902;2023-08-31T05:44:26;8.15;;;2.53;;
20653;SDS011;21083;50.898;4.902;2023-08-31T05:46:53;7.40;;;2.83;;
20653;SDS011;21083;50.898;4.902;2023-08-31T05:49:20;7.63;;;2.58;;
20653;SDS011;21083;50.898;4.902;2023-08-31T05:51:47;7.05;;;2.33;;
20653;SDS011;21083;50.898;4.902;2023-08-31T05:54:15;10.05;;;3.22;;
20653;SDS011;21083;50.898;4.902;2023-08-31T05:56:41;9.35;;;2.80;;
20653;SDS011;21083;50.898;4.902;2023-08-31T05:59:09;9.98;;;2.97;;
20653;SDS011;21083;50.898;4.902;2023-08-31T06:01:37;6.95;;;2.72;;
20653;SDS011;21083;50.898;4.902;2023-08-31T06:04:04;12.60;;;3.72;;
20653;SDS011;21083;50.898;4.902;2023-08-31T06:06:31;11.02;;;3.60;;
20653;SDS011;21083;50.898;4.902;2023-08-31T06:08:58;9.98;;;2.90;;
20653;SDS011;21083;50.898;4.902;2023-08-31T06:11:25;12.18;;;3.33;;
20653;SDS011;21083;50.898;4.902;2023-08-31T06:13:52;12.55;;;3.20;;
20653;SDS011;21083;50.898;4.902;2023-08-31T06:16:19;13.05;;;3.05;;
20653;SDS011;21083;50.898;4.902;2023-08-31T06:18:48;12.27;;;3.65;;
20653;SDS011;21083;50.898;4.902;2023-08-31T06:21:15;8.82;;;2.55;;
20653;SDS011;21083;50.898;4.902;2023-08-31T06:23:42;12.80;;;3.67;;
20653;SDS011;21083;50.898;4.902;2023-08-31T06:26:08;13.07;;;3.65;;
20653;SDS011;21083;50.898;4.902;2023-08-31T06:28:36;10.38;;;3.15;;
20653;SDS011;21083;50.898;4.902;2023-08-31T06:31:03;10.75;;;3.60;;
20653;SDS011;21083;50.898;4.902;2023-08-31T06:33:30;9.57;;;3.13;;
20653;SDS011;21083;50.898;4.902;2023-08-31T06:35:59;11.65;;;3.28;;
20653;SDS011;21083;50.898;4.902;2023-08-31T06:38:26;10.75;;;3.00;;
20653;SDS011;21083;50.898;4.902;2023-08-31T06:40:54;8.82;;;2.88;;
20653;SDS011;21083;50.898;4.902;2023-08-31T06:43:24;9.57;;;2.83;;
20653;SDS011;21083;50.898;4.902;2023-08-31T06:45:51;10.68;;;3.33;;
20653;SDS011;21083;50.898;4.902;2023-08-31T06:48:19;11.00;;;2.92;;
20653;SDS011;21083;50.898;4.902;2023-08-31T06:50:46;11.80;;;3.10;;
20653;SDS011;21083;50.898;4.902;2023-08-31T06:53:15;13.45;;;3.53;;
20653;SDS011;21083;50.898;4.902;2023-08-31T06:55:42;19.25;;;3.88;;
20653;SDS011;21083;50.898;4.902;2023-08-31T06:58:09;11.52;;;2.97;;
20653;SDS011;21083;50.898;4.902;2023-08-31T07:00:36;11.52;;;3.67;;
20653;SDS011;21083;50.898;4.902;2023-08-31T07:03:03;18.48;;;4.53;;
20653;SDS011;21083;50.898;4.902;2023-08-31T07:05:32;13.43;;;3.50;;
20653;SDS011;21083;50.898;4.902;2023-08-31T07:08:01;10.23;;;3.53;;
20653;SDS011;21083;50.898;4.902;2023-08-31T07:10:30;10.32;;;3.38;;
20653;SDS011;21083;50.898;4.902;2023-08-31T07:12:57;11.30;;;3.13;;
20653;SDS011;21083;50.898;4.902;2023-08-31T07:15:24;13.10;;;3.38;;
20653;SDS011;21083;50.898;4.902;2023-08-31T07:17:51;15.07;;;3.40;;
20653;SDS011;21083;50.898;4.902;2023-08-31T07:20:18;12.48;;;3.45;;
20653;SDS011;21083;50.898;4.902;2023-08-31T07:22:45;13.18;;;4.15;;
20653;SDS011;21083;50.898;4.902;2023-08-31T07:25:12;12.63;;;3.95;;
20653;SDS011;21083;50.898;4.902;2023-08-31T07:27:41;20.95;;;4.07;;
20653;SDS011;21083;50.898;4.902;2023-08-31T07:30:08;12.40;;;3.75;;
20653;SDS011;21083;50.898;4.902;2023-08-31T07:32:36;16.15;;;3.80;;
20653;SDS011;21083;50.898;4.902;2023-08-31T07:35:04;13.70;;;3.58;;
20653;SDS011;21083;50.898;4.902;2023-08-31T07:37:32;11.70;;;3.60;;
20653;SDS011;21083;50.898;4.902;2023-08-31T07:39:59;14.18;;;3.63;;
20653;SDS011;21083;50.898;4.902;2023-08-31T07:42:26;18.20;;;4.30;;
20653;SDS011;21083;50.898;4.902;2023-08-31T07:44:56;15.15;;;5.07;;
20653;SDS011;21083;50.898;4.902;2023-08-31T07:47:23;16.52;;;3.85;;
20653;SDS011;21083;50.898;4.902;2023-08-31T07:49:49;14.48;;;4.57;;
20653;SDS011;21083;50.898;4.902;2023-08-31T07:52:16;17.45;;;4.18;;
20653;SDS011;21083;50.898;4.902;2023-08-31T07:54:44;14.95;;;4.43;;
20653;SDS011;21083;50.898;4.902;2023-08-31T07:57:11;18.67;;;4.45;;
20653;SDS011;21083;50.898;4.902;2023-08-31T07:59:38;11.80;;;3.72;;
20653;SDS011;21083;50.898;4.902;2023-08-31T08:02:07;17.35;;;4.55;;
20653;SDS011;21083;50.898;4.902;2023-08-31T08:04:33;15.20;;;4.05;;
20653;SDS011;21083;50.898;4.902;2023-08-31T08:07:00;12.98;;;3.97;;
20653;SDS011;21083;50.898;4.902;2023-08-31T08:09:28;15.02;;;4.28;;
20653;SDS011;21083;50.898;4.902;2023-08-31T08:11:56;12.30;;;3.80;;
20653;SDS011;21083;50.898;4.902;2023-08-31T08:14:23;14.95;;;4.15;;
20653;SDS011;21083;50.898;4.902;2023-08-31T08:16:49;16.70;;;4.00;;
20653;SDS011;21083;50.898;4.902;2023-08-31T08:19:22;15.93;;;4.13;;
20653;SDS011;21083;50.898;4.902;2023-08-31T08:21:49;14.43;;;4.32;;
20653;SDS011;21083;50.898;4.902;2023-08-31T08:24:16;21.02;;;5.80;;
20653;SDS011;21083;50.898;4.902;2023-08-31T08:26:43;15.55;;;4.07;;
20653;SDS011;21083;50.898;4.902;2023-08-31T08:29:10;15.30;;;4.38;;
20653;SDS011;21083;50.898;4.902;2023-08-31T08:31:38;21.27;;;4.82;;
20653;SDS011;21083;50.898;4.902;2023-08-31T08:34:05;15.60;;;4.03;;
20653;SDS011;21083;50.898;4.902;2023-08-31T08:36:33;14.80;;;4.05;;
20653;SDS011;21083;50.898;4.902;2023-08-31T08:39:00;14.88;;;4.15;;
20653;SDS011;21083;50.898;4.902;2023-08-31T08:41:28;14.75;;;3.85;;
20653;SDS011;21083;50.898;4.902;2023-08-31T08:43:57;13.50;;;3.80;;
20653;SDS011;21083;50.898;4.902;2023-08-31T08:46:28;15.68;;;3.72;;
20653;SDS011;21083;50.898;4.902;2023-08-31T08:48:57;14.27;;;3.70;;
20653;SDS011;21083;50.898;4.902;2023-08-31T08:51:27;11.90;;;3.08;;
20653;SDS011;21083;50.898;4.902;2023-08-31T08:53:57;12.45;;;3.30;;
20653;SDS011;21083;50.898;4.902;2023-08-31T08:56:26;14.15;;;4.03;;
20653;SDS011;21083;50.898;4.902;2023-08-31T08:58:53;11.30;;;3.70;;
20653;SDS011;21083;50.898;4.902;2023-08-31T09:01:21;10.15;;;3.40;;
20653;SDS011;21083;50.898;4.902;2023-08-31T09:03:49;11.23;;;3.60;;
20653;SDS011;21083;50.898;4.902;2023-08-31T09:06:16;16.10;;;3.55;;
20653;SDS011;21083;50.898;4.902;2023-08-31T09:08:43;13.10;;;3.67;;
20653;SDS011;21083;50.898;4.902;2023-08-31T09:11:20;15.38;;;3.60;;
20653;SDS011;21083;50.898;4.902;2023-08-31T09:13:48;17.60;;;4.10;;
20653;SDS011;21083;50.898;4.902;2023-08-31T09:16:25;13.23;;;3.50;;
20653;SDS011;21083;50.898;4.902;2023-08-31T09:18:53;17.05;;;4.35;;
20653;SDS011;21083;50.898;4.902;2023-08-31T09:21:21;20.00;;;3.90;;
20653;SDS011;21083;50.898;4.902;2023-08-31T09:23:55;16.42;;;3.55;;
20653;SDS011;21083;50.898;4.902;2023-08-31T09:26:24;16.45;;;3.33;;
20653;SDS011;21083;50.898;4.902;2023-08-31T09:28:51;14.10;;;4.03;;
20653;SDS011;21083;50.898;4.902;2023-08-31T09:31:18;13.25;;;3.47;;
20653;SDS011;21083;50.898;4.902;2023-08-31T09:33:49;13.23;;;3.78;;
20653;SDS011;21083;50.898;4.902;2023-08-31T09:36:17;11.70;;;3.35;;
20653;SDS011;21083;50.898;4.902;2023-08-31T09:38:44;16.25;;;3.72;;
20653;SDS011;21083;50.898;4.902;2023-08-31T09:41:12;13.18;;;3.20;;
20653;SDS011;21083;50.898;4.902;2023-08-31T09:43:41;13.25;;;3.97;;
20653;SDS011;21083;50.898;4.902;2023-08-31T09:46:08;15.77;;;3.85;;
20653;SDS011;21083;50.898;4.902;2023-08-31T09:48:36;16.20;;;3.95;;
20653;SDS011;21083;50.898;4.902;2023-08-31T09:51:05;10.45;;;3.55;;
20653;SDS011;21083;50.898;4.902;2023-08-31T09:53:33;15.80;;;3.78;;
20653;SDS011;21083;50.898;4.902;2023-08-31T09:56:03;13.43;;;3.67;;
20653;SDS011;21083;50.898;4.902;2023-08-31T09:58:31;14.88;;;3.38;;
20653;SDS011;21083;50.898;4.902;2023-08-31T10:01:01;13.75;;;3.40;;
20653;SDS011;21083;50.898;4.902;2023-08-31T10:03:28;10.00;;;3.47;;
20653;SDS011;21083;50.898;4.902;2023-08-31T10:05:56;8.70;;;2.83;;
20653;SDS011;21083;50.898;4.902;2023-08-31T10:08:25;12.57;;;2.95;;
20653;SDS011;21083;50.898;4.902;2023-08-31T10:10:57;8.75;;;2.97;;
20653;SDS011;21083;50.898;4.902;2023-08-31T10:13:26;9.93;;;2.58;;
20653;SDS011;21083;50.898;4.902;2023-08-31T10:15:57;8.55;;;3.00;;
20653;SDS011;21083;50.898;4.902;2023-08-31T10:18:26;9.52;;;2.55;;
20653;SDS011;21083;50.898;4.902;2023-08-31T10:20:54;12.68;;;3.15;;
20653;SDS011;21083;50.898;4.902;2023-08-31T10:23:21;11.93;;;2.83;;
20653;SDS011;21083;50.898;4.902;2023-08-31T10:26:00;10.75;;;2.47;;
20653;SDS011;21083;50.898;4.902;2023-08-31T10:28:29;9.55;;;2.58;;
20653;SDS011;21083;50.898;4.902;2023-08-31T10:31:06;9.50;;;2.67;;
20653;SDS011;21083;50.898;4.902;2023-08-31T10:33:38;9.88;;;2.17;;
20653;SDS011;21083;50.898;4.902;2023-08-31T10:36:09;9.32;;;2.53;;
20653;SDS011;21083;50.898;4.902;2023-08-31T10:38:38;9.13;;;2.30;;
20653;SDS011;21083;50.898;4.902;2023-08-31T10:41:18;7.72;;;2.35;;
20653;SDS011;21083;50.898;4.902;2023-08-31T10:43:50;12.27;;;2.35;;
20653;SDS011;21083;50.898;4.902;2023-08-31T10:46:28;10.57;;;2.22;;
20653;SDS011;21083;50.898;4.902;2023-08-31T10:48:59;13.10;;;2.55;;
20653;SDS011;21083;50.898;4.902;2023-08-31T10:51:28;8.73;;;2.28;;
20653;SDS011;21083;50.898;4.902;2023-08-31T10:54:07;11.02;;;2.40;;
20653;SDS011;21083;50.898;4.902;2023-08-31T10:56:52;13.18;;;2.33;;
20653;SDS011;21083;50.898;4.902;2023-08-31T10:59:20;8.52;;;2.55;;
20653;SDS011;21083;50.898;4.902;2023-08-31T11:01:55;9.10;;;2.15;;
20653;SDS011;21083;50.898;4.902;2023-08-31T11:04:24;6.35;;;1.88;;
20653;SDS011;21083;50.898;4.902;2023-08-31T11:09:39;11.80;;;2.90;;
20653;SDS011;21083;50.898;4.902;2023-08-31T11:12:06;10.98;;;2.20;;
20653;SDS011;21083;50.898;4.902;2023-08-31T11:14:34;11.80;;;2.45;;
20653;SDS011;21083;50.898;4.902;2023-08-31T11:17:01;10.40;;;2.30;;
20653;SDS011;21083;50.898;4.902;2023-08-31T11:19:31;8.38;;;2.20;;
20653;SDS011;21083;50.898;4.902;2023-08-31T11:22:01;11.48;;;2.08;;
20653;SDS011;21083;50.898;4.902;2023-08-31T11:24:29;8.77;;;2.40;;
20653;SDS011;21083;50.898;4.902;2023-08-31T11:26:57;11.50;;;2.38;;
20653;SDS011;21083;50.898;4.902;2023-08-31T11:29:24;10.38;;;2.17;;
20653;SDS011;21083;50.898;4.902;2023-08-31T11:31:53;10.45;;;1.88;;
20653;SDS011;21083;50.898;4.902;2023-08-31T11:34:24;8.50;;;2.60;;
20653;SDS011;21083;50.898;4.902;2023-08-31T11:36:52;7.80;;;2.00;;
20653;SDS011;21083;50.898;4.902;2023-08-31T11:39:19;15.52;;;2.40;;
20653;SDS011;21083;50.898;4.902;2023-08-31T11:41:46;16.90;;;2.60;;
20653;SDS011;21083;50.898;4.902;2023-08-31T11:44:14;11.05;;;2.28;;
20653;SDS011;21083;50.898;4.902;2023-08-31T11:46:42;9.45;;;2.47;;
20653;SDS011;21083;50.898;4.902;2023-08-31T11:49:13;10.95;;;2.20;;
20653;SDS011;21083;50.898;4.902;2023-08-31T11:51:40;7.60;;;2.30;;
20653;SDS011;21083;50.898;4.902;2023-08-31T11:54:10;9.68;;;2.42;;
20653;SDS011;21083;50.898;4.902;2023-08-31T11:56:40;11.02;;;2.30;;
20653;SDS011;21083;50.898;4.902;2023-08-31T11:59:09;11.10;;;2.42;;
20653;SDS011;21083;50.898;4.902;2023-08-31T12:01:37;8.23;;;2.10;;
20653;SDS011;21083;50.898;4.902;2023-08-31T12:04:15;6.95;;;1.90;;
20653;SDS011;21083;50.898;4.902;2023-08-31T12:06:45;11.90;;;2.20;;
20653;SDS011;21083;50.898;4.902;2023-08-31T12:09:15;8.00;;;2.10;;
20653;SDS011;21083;50.898;4.902;2023-08-31T12:11:42;9.90;;;2.53;;
20653;SDS011;21083;50.898;4.902;2023-08-31T12:14:19;8.77;;;1.70;;
20653;SDS011;21083;50.898;4.902;2023-08-31T12:16:47;9.40;;;2.20;;
20653;SDS011;21083;50.898;4.902;2023-08-31T12:19:15;7.20;;;2.20;;
20653;SDS011;21083;50.898;4.902;2023-08-31T12:21:42;9.38;;;2.10;;
20653;SDS011;21083;50.898;4.902;2023-08-31T12:24:11;10.27;;;2.05;;
20653;SDS011;21083;50.898;4.902;2023-08-31T12:26:40;11.05;;;2.20;;
20653;SDS011;21083;50.898;4.902;2023-08-31T12:29:07;10.30;;;2.28;;
20653;SDS011;21083;50.898;4.902;2023-08-31T12:31:33;9.45;;;2.67;;
20653;SDS011;21083;50.898;4.902;2023-08-31T12:34:00;9.68;;;2.05;;
20653;SDS011;21083;50.898;4.902;2023-08-31T12:36:31;8.38;;;2.15;;
20653;SDS011;21083;50.898;4.902;2023-08-31T12:38:58;11.57;;;2.33;;
20653;SDS011;21083;50.898;4.902;2023-08-31T12:41:26;5.78;;;1.75;;
20653;SDS011;21083;50.898;4.902;2023-08-31T12:43:55;6.90;;;2.03;;
20653;SDS011;21083;50.898;4.902;2023-08-31T12:46:23;7.38;;;1.77;;
20653;SDS011;21083;50.898;4.902;2023-08-31T12:48:50;9.32;;;2.33;;
20653;SDS011;21083;50.898;4.902;2023-08-31T12:51:17;9.80;;;1.88;;
20653;SDS011;21083;50.898;4.902;2023-08-31T12:53:44;8.23;;;2.10;;
20653;SDS011;21083;50.898;4.902;2023-08-31T12:56:11;8.10;;;2.03;;
20653;SDS011;21083;50.898;4.902;2023-08-31T12:58:38;8.13;;;1.75;;
20653;SDS011;21083;50.898;4.902;2023-08-31T13:01:07;5.90;;;1.50;;
20653;SDS011;21083;50.898;4.902;2023-08-31T13:03:34;9.52;;;1.70;;
20653;SDS011;21083;50.898;4.902;2023-08-31T13:06:01;10.52;;;2.70;;
20653;SDS011;21083;50.898;4.902;2023-08-31T13:08:28;9.52;;;1.80;;
20653;SDS011;21083;50.898;4.902;2023-08-31T13:10:55;12.35;;;2.42;;
20653;SDS011;21083;50.898;4.902;2023-08-31T13:13:22;7.00;;;1.77;;
20653;SDS011;21083;50.898;4.902;2023-08-31T13:15:49;5.90;;;1.45;;
20653;SDS011;21083;50.898;4.902;2023-08-31T13:18:17;11.63;;;1.95;;
20653;SDS011;21083;50.898;4.902;2023-08-31T13:20:51;7.00;;;1.73;;
20653;SDS011;21083;50.898;4.902;2023-08-31T13:23:18;9.70;;;2.00;;
20653;SDS011;21083;50.898;4.902;2023-08-31T13:25:45;7.82;;;1.63;;
20653;SDS011;21083;50.898;4.902;2023-08-31T13:28:12;9.90;;;2.80;;
20653;SDS011;21083;50.898;4.902;2023-08-31T13:30:40;7.45;;;1.88;;
20653;SDS011;21083;50.898;4.902;2023-08-31T13:33:07;8.18;;;2.10;;
20653;SDS011;21083;50.898;4.902;2023-08-31T13:35:36;6.47;;;1.70;;
20653;SDS011;21083;50.898;4.902;2023-08-31T13:38:03;6.18;;;1.80;;
20653;SDS011;21083;50.898;4.902;2023-08-31T13:40:33;8.10;;;1.90;;
20653;SDS011;21083;50.898;4.902;2023-08-31T13:43:01;8.93;;;1.73;;
20653;SDS011;21083;50.898;4.902;2023-08-31T13:45:28;9.73;;;2.30;;
20653;SDS011;21083;50.898;4.902;2023-08-31T13:47:55;9.18;;;1.77;;
20653;SDS011;21083;50.898;4.902;2023-08-31T13:50:24;9.88;;;2.03;;
20653;SDS011;21083;50.898;4.902;2023-08-31T13:52:52;7.90;;;1.80;;
20653;SDS011;21083;50.898;4.902;2023-08-31T13:55:19;10.00;;;2.33;;
20653;SDS011;21083;50.898;4.902;2023-08-31T13:57:47;7.68;;;1.90;;
20653;SDS011;21083;50.898;4.902;2023-08-31T14:00:14;11.48;;;2.63;;
20653;SDS011;21083;50.898;4.902;2023-08-31T14:02:42;7.13;;;1.92;;
20653;SDS011;21083;50.898;4.902;2023-08-31T14:05:10;11.40;;;1.63;;
20653;SDS011;21083;50.898;4.902;2023-08-31T14:07:37;9.10;;;1.80;;
20653;SDS011;21083;50.898;4.902;2023-08-31T14:10:06;7.60;;;1.85;;
20653;SDS011;21083;50.898;4.902;2023-08-31T14:12:33;6.97;;;1.60;;
20653;SDS011;21083;50.898;4.902;2023-08-31T14:15:01;6.45;;;1.50;;
20653;SDS011;21083;50.898;4.902;2023-08-31T14:17:29;11.70;;;2.20;;
20653;SDS011;21083;50.898;4.902;2023-08-31T14:19:58;9.52;;;2.00;;
20653;SDS011;21083;50.898;4.902;2023-08-31T14:22:30;9.05;;;1.80;;
20653;SDS011;21083;50.898;4.902;2023-08-31T14:24:57;10.52;;;2.10;;
20653;SDS011;21083;50.898;4.902;2023-08-31T14:27:25;5.53;;;1.65;;
20653;SDS011;21083;50.898;4.902;2023-08-31T14:29:53;8.05;;;1.83;;
20653;SDS011;21083;50.898;4.902;2023-08-31T14:32:20;10.15;;;1.75;;
20653;SDS011;21083;50.898;4.902;2023-08-31T14:34:47;6.50;;;1.77;;
20653;SDS011;21083;50.898;4.902;2023-08-31T14:37:14;8.88;;;2.10;;
20653;SDS011;21083;50.898;4.902;2023-08-31T14:39:41;10.13;;;2.40;;
20653;SDS011;21083;50.898;4.902;2023-08-31T14:42:08;9.57;;;2.10;;
20653;SDS011;21083;50.898;4.902;2023-08-31T14:44:37;9.15;;;2.63;;
20653;SDS011;21083;50.898;4.902;2023-08-31T14:47:04;13.23;;;2.17;;
20653;SDS011;21083;50.898;4.902;2023-08-31T14:49:31;8.27;;;1.80;;